sensor_id;sensor_type;location;lat;lon;timestamp;P1;durP1;ratioP1;P2;durP2;ratioP2
73684;SDS011;61985;51.070;14.064;2023-09-19T00:02:17;8.38;;;4.47;;
73684;SDS011;61985;51.070;14.064;2023-09-19T00:04:42;7.30;;;3.75;;
73684;SDS011;61985;51.070;14.064;2023-09-19T00:07:08;8.57;;;4.65;;
73684;SDS011;61985;51.070;14.064;2023-09-19T00:09:36;7.95;;;4.45;;
73684;SDS011;61985;51.070;14.064;2023-09-19T00:12:05;8.77;;;4.90;;
73684;SDS011;61985;51.070;14.064;2023-09-19T00:14:31;6.80;;;3.78;;
73684;SDS011;61985;51.070;14.064;2023-09-19T00:17:01;7.55;;;3.85;;
73684;SDS011;61985;51.070;14.064;2023-09-19T00:19:32;8.60;;;4.40;;
73684;SDS011;61985;51.070;14.064;2023-09-19T00:21:58;7.88;;;3.88;;
73684;SDS011;61985;51.070;14.064;2023-09-19T00:24:23;7.38;;;4.22;;
73684;SDS011;61985;51.070;14.064;2023-09-19T00:26:49;7.03;;;4.15;;
73684;SDS011;61985;51.070;14.064;2023-09-19T00:29:14;9.52;;;3.60;;
73684;SDS011;61985;51.070;14.064;2023-09-19T00:31:44;7.82;;;4.57;;
73684;SDS011;61985;51.070;14.064;2023-09-19T00:34:10;9.63;;;4.10;;
73684;SDS011;61985;51.070;14.064;2023-09-19T00:36:38;9.63;;;4.05;;
73684;SDS011;61985;51.070;14.064;2023-09-19T00:39:05;6.53;;;3.78;;
73684;SDS011;61985;51.070;14.064;2023-09-19T00:41:34;6.18;;;3.88;;
73684;SDS011;61985;51.070;14.064;2023-09-19T00:44:03;6.60;;;3.63;;
73684;SDS011;61985;51.070;14.064;2023-09-19T00:46:30;11.93;;;4.07;;
73684;SDS011;61985;51.070;14.064;2023-09-19T00:48:57;8.30;;;4.05;;
73684;SDS011;61985;51.070;14.064;2023-09-19T00:51:23;6.68;;;3.42;;
73684;SDS011;61985;51.070;14.064;2023-09-19T00:53:51;7.78;;;4.20;;
73684;SDS011;61985;51.070;14.064;2023-09-19T00:56:17;8.18;;;4.20;;
73684;SDS011;61985;51.070;14.064;2023-09-19T00:58:44;10.07;;;3.88;;
73684;SDS011;61985;51.070;14.064;2023-09-19T01:01:11;8.13;;;4.07;;
73684;SDS011;61985;51.070;14.064;2023-09-19T01:03:39;6.18;;;4.03;;
73684;SDS011;61985;51.070;14.064;2023-09-19T01:06:06;8.13;;;4.05;;
73684;SDS011;61985;51.070;14.064;2023-09-19T01:08:32;10.23;;;4.38;;
73684;SDS011;61985;51.070;14.064;2023-09-19T01:11:10;7.05;;;4.15;;
73684;SDS011;61985;51.070;14.064;2023-09-19T01:21:50;7.90;;;3.75;;
73684;SDS011;61985;51.070;14.064;2023-09-19T01:27:45;8.93;;;4.18;;
73684;SDS011;61985;51.070;14.064;2023-09-19T01:32:47;11.55;;;4.20;;
73684;SDS011;61985;51.070;14.064;2023-09-19T01:35:17;8.00;;;3.83;;
73684;SDS011;61985;51.070;14.064;2023-09-19T01:37:43;10.50;;;3.90;;
73684;SDS011;61985;51.070;14.064;2023-09-19T01:40:09;8.68;;;4.22;;
73684;SDS011;61985;51.070;14.064;2023-09-19T01:48:25;8.15;;;3.85;;
73684;SDS011;61985;51.070;14.064;2023-09-19T01:50:55;9.05;;;4.40;;
73684;SDS011;61985;51.070;14.064;2023-09-19T01:55:53;5.18;;;3.40;;
73684;SDS011;61985;51.070;14.064;2023-09-19T02:01:16;6.95;;;3.75;;
73684;SDS011;61985;51.070;14.064;2023-09-19T02:03:45;12.00;;;4.20;;
73684;SDS011;61985;51.070;14.064;2023-09-19T02:06:15;8.68;;;4.10;;
73684;SDS011;61985;51.070;14.064;2023-09-19T02:08:42;7.28;;;4.07;;
73684;SDS011;61985;51.070;14.064;2023-09-19T02:11:08;7.00;;;4.13;;
73684;SDS011;61985;51.070;14.064;2023-09-19T02:13:33;7.78;;;4.13;;
73684;SDS011;61985;51.070;14.064;2023-09-19T02:15:59;10.93;;;3.95;;
73684;SDS011;61985;51.070;14.064;2023-09-19T02:18:24;7.78;;;3.97;;
73684;SDS011;61985;51.070;14.064;2023-09-19T02:20:52;7.15;;;3.50;;
73684;SDS011;61985;51.070;14.064;2023-09-19T02:23:19;8.48;;;3.80;;
73684;SDS011;61985;51.070;14.064;2023-09-19T02:25:51;5.93;;;3.38;;
73684;SDS011;61985;51.070;14.064;2023-09-19T02:28:17;6.68;;;3.63;;
73684;SDS011;61985;51.070;14.064;2023-09-19T02:30:42;6.57;;;3.33;;
73684;SDS011;61985;51.070;14.064;2023-09-19T02:33:08;8.32;;;3.70;;
73684;SDS011;61985;51.070;14.064;2023-09-19T02:35:33;10.18;;;4.10;;
73684;SDS011;61985;51.070;14.064;2023-09-19T02:38:01;6.13;;;3.67;;
73684;SDS011;61985;51.070;14.064;2023-09-19T02:40:28;5.90;;;3.72;;
73684;SDS011;61985;51.070;14.064;2023-09-19T02:42:54;7.00;;;3.95;;
73684;SDS011;61985;51.070;14.064;2023-09-19T02:45:20;7.60;;;3.72;;
73684;SDS011;61985;51.070;14.064;2023-09-19T02:47:46;7.15;;;3.88;;
73684;SDS011;61985;51.070;14.064;2023-09-19T02:50:12;6.07;;;3.80;;
73684;SDS011;61985;51.070;14.064;2023-09-19T02:52:41;6.57;;;3.70;;
73684;SDS011;61985;51.070;14.064;2023-09-19T02:55:08;8.57;;;4.05;;
73684;SDS011;61985;51.070;14.064;2023-09-19T02:57:35;8.00;;;3.97;;
73684;SDS011;61985;51.070;14.064;2023-09-19T03:00:05;9.93;;;3.80;;
73684;SDS011;61985;51.070;14.064;2023-09-19T03:02:37;7.00;;;4.22;;
73684;SDS011;61985;51.070;14.064;2023-09-19T03:05:05;9.73;;;4.07;;
73684;SDS011;61985;51.070;14.064;2023-09-19T03:07:31;8.55;;;3.90;;
73684;SDS011;61985;51.070;14.064;2023-09-19T03:09:56;6.25;;;3.88;;
73684;SDS011;61985;51.070;14.064;2023-09-19T03:12:21;5.55;;;3.40;;
73684;SDS011;61985;51.070;14.064;2023-09-19T03:14:47;8.43;;;4.13;;
73684;SDS011;61985;51.070;14.064;2023-09-19T03:17:13;9.10;;;4.05;;
73684;SDS011;61985;51.070;14.064;2023-09-19T03:19:39;11.10;;;4.65;;
73684;SDS011;61985;51.070;14.064;2023-09-19T03:22:05;6.68;;;3.90;;
73684;SDS011;61985;51.070;14.064;2023-09-19T03:24:31;7.78;;;4.07;;
73684;SDS011;61985;51.070;14.064;2023-09-19T03:26:58;5.60;;;3.65;;
73684;SDS011;61985;51.070;14.064;2023-09-19T03:29:24;7.45;;;4.15;;
73684;SDS011;61985;51.070;14.064;2023-09-19T03:31:50;5.85;;;3.50;;
73684;SDS011;61985;51.070;14.064;2023-09-19T03:34:15;8.13;;;3.88;;
73684;SDS011;61985;51.070;14.064;2023-09-19T03:36:42;6.20;;;3.75;;
73684;SDS011;61985;51.070;14.064;2023-09-19T03:39:07;5.70;;;3.70;;
73684;SDS011;61985;51.070;14.064;2023-09-19T03:41:32;5.90;;;3.78;;
73684;SDS011;61985;51.070;14.064;2023-09-19T03:43:58;8.07;;;4.30;;
73684;SDS011;61985;51.070;14.064;2023-09-19T03:46:24;6.45;;;3.90;;
73684;SDS011;61985;51.070;14.064;2023-09-19T03:48:50;9.18;;;3.72;;
73684;SDS011;61985;51.070;14.064;2023-09-19T03:51:15;6.68;;;3.55;;
73684;SDS011;61985;51.070;14.064;2023-09-19T03:53:41;7.93;;;3.90;;
73684;SDS011;61985;51.070;14.064;2023-09-19T03:56:06;8.55;;;3.20;;
73684;SDS011;61985;51.070;14.064;2023-09-19T03:58:33;7.85;;;3.55;;
73684;SDS011;61985;51.070;14.064;2023-09-19T04:01:03;7.63;;;3.20;;
73684;SDS011;61985;51.070;14.064;2023-09-19T04:03:28;6.60;;;3.13;;
73684;SDS011;61985;51.070;14.064;2023-09-19T04:06:00;4.78;;;2.75;;
73684;SDS011;61985;51.070;14.064;2023-09-19T04:08:26;4.43;;;2.42;;
73684;SDS011;61985;51.070;14.064;2023-09-19T04:10:51;7.10;;;3.05;;
73684;SDS011;61985;51.070;14.064;2023-09-19T04:13:18;4.78;;;2.38;;
73684;SDS011;61985;51.070;14.064;2023-09-19T04:15:43;4.63;;;2.30;;
73684;SDS011;61985;51.070;14.064;2023-09-19T04:18:11;5.95;;;2.60;;
73684;SDS011;61985;51.070;14.064;2023-09-19T04:20:37;3.35;;;2.20;;
73684;SDS011;61985;51.070;14.064;2023-09-19T04:23:02;5.22;;;2.63;;
73684;SDS011;61985;51.070;14.064;2023-09-19T04:25:29;5.65;;;2.67;;
73684;SDS011;61985;51.070;14.064;2023-09-19T04:27:55;3.55;;;2.20;;
73684;SDS011;61985;51.070;14.064;2023-09-19T04:30:20;3.35;;;2.05;;
73684;SDS011;61985;51.070;14.064;2023-09-19T04:32:46;3.33;;;2.22;;
73684;SDS011;61985;51.070;14.064;2023-09-19T04:35:15;3.80;;;2.20;;
73684;SDS011;61985;51.070;14.064;2023-09-19T04:37:41;5.32;;;2.38;;
73684;SDS011;61985;51.070;14.064;2023-09-19T04:40:07;5.05;;;2.13;;
73684;SDS011;61985;51.070;14.064;2023-09-19T04:42:42;3.80;;;1.90;;
73684;SDS011;61985;51.070;14.064;2023-09-19T04:45:08;4.80;;;1.83;;
73684;SDS011;61985;51.070;14.064;2023-09-19T04:47:37;4.93;;;1.90;;
73684;SDS011;61985;51.070;14.064;2023-09-19T04:50:07;4.00;;;1.90;;
73684;SDS011;61985;51.070;14.064;2023-09-19T04:55:03;8.75;;;2.00;;
73684;SDS011;61985;51.070;14.064;2023-09-19T04:57:28;5.88;;;2.25;;
73684;SDS011;61985;51.070;14.064;2023-09-19T04:59:54;2.50;;;1.90;;
73684;SDS011;61985;51.070;14.064;2023-09-19T05:02:19;6.65;;;2.15;;
73684;SDS011;61985;51.070;14.064;2023-09-19T05:04:44;2.72;;;1.40;;
73684;SDS011;61985;51.070;14.064;2023-09-19T05:07:10;3.97;;;1.73;;
73684;SDS011;61985;51.070;14.064;2023-09-19T05:09:36;5.97;;;1.80;;
73684;SDS011;61985;51.070;14.064;2023-09-19T05:12:02;2.05;;;1.58;;
73684;SDS011;61985;51.070;14.064;2023-09-19T05:14:28;3.40;;;1.60;;
73684;SDS011;61985;51.070;14.064;2023-09-19T05:16:53;5.85;;;1.83;;
73684;SDS011;61985;51.070;14.064;2023-09-19T05:19:19;6.38;;;1.73;;
73684;SDS011;61985;51.070;14.064;2023-09-19T05:21:44;9.35;;;1.88;;
73684;SDS011;61985;51.070;14.064;2023-09-19T05:24:11;4.72;;;1.60;;
73684;SDS011;61985;51.070;14.064;2023-09-19T05:26:37;3.22;;;1.67;;
73684;SDS011;61985;51.070;14.064;2023-09-19T05:29:02;3.72;;;1.67;;
73684;SDS011;61985;51.070;14.064;2023-09-19T05:31:31;3.45;;;1.60;;
73684;SDS011;61985;51.070;14.064;2023-09-19T05:33:56;4.78;;;1.73;;
73684;SDS011;61985;51.070;14.064;2023-09-19T05:36:23;2.88;;;1.73;;
73684;SDS011;61985;51.070;14.064;2023-09-19T05:38:48;3.95;;;1.50;;
73684;SDS011;61985;51.070;14.064;2023-09-19T05:41:15;5.55;;;1.63;;
73684;SDS011;61985;51.070;14.064;2023-09-19T05:43:41;5.13;;;1.48;;
73684;SDS011;61985;51.070;14.064;2023-09-19T05:46:07;4.93;;;1.70;;
73684;SDS011;61985;51.070;14.064;2023-09-19T05:48:33;7.47;;;1.80;;
73684;SDS011;61985;51.070;14.064;2023-09-19T05:50:58;4.40;;;1.85;;
73684;SDS011;61985;51.070;14.064;2023-09-19T05:53:24;5.22;;;1.70;;
73684;SDS011;61985;51.070;14.064;2023-09-19T05:55:49;4.15;;;1.70;;
73684;SDS011;61985;51.070;14.064;2023-09-19T05:58:15;6.85;;;1.90;;
73684;SDS011;61985;51.070;14.064;2023-09-19T06:00:42;4.40;;;1.90;;
73684;SDS011;61985;51.070;14.064;2023-09-19T06:03:09;3.58;;;1.70;;
73684;SDS011;61985;51.070;14.064;2023-09-19T06:05:36;2.55;;;1.70;;
73684;SDS011;61985;51.070;14.064;2023-09-19T06:08:05;3.33;;;1.70;;
73684;SDS011;61985;51.070;14.064;2023-09-19T06:10:32;3.47;;;1.95;;
73684;SDS011;61985;51.070;14.064;2023-09-19T06:12:59;4.18;;;1.52;;
73684;SDS011;61985;51.070;14.064;2023-09-19T06:15:29;3.08;;;1.75;;
73684;SDS011;61985;51.070;14.064;2023-09-19T06:17:57;4.30;;;1.50;;
73684;SDS011;61985;51.070;14.064;2023-09-19T06:20:24;2.35;;;1.60;;
73684;SDS011;61985;51.070;14.064;2023-09-19T06:22:52;2.72;;;1.63;;
73684;SDS011;61985;51.070;14.064;2023-09-19T06:25:17;3.05;;;1.38;;
73684;SDS011;61985;51.070;14.064;2023-09-19T06:27:47;3.63;;;1.50;;
73684;SDS011;61985;51.070;14.064;2023-09-19T06:30:13;2.15;;;1.40;;
73684;SDS011;61985;51.070;14.064;2023-09-19T06:32:39;3.90;;;1.50;;
73684;SDS011;61985;51.070;14.064;2023-09-19T06:35:09;5.25;;;1.60;;
73684;SDS011;61985;51.070;14.064;2023-09-19T06:37:36;3.10;;;1.70;;
73684;SDS011;61985;51.070;14.064;2023-09-19T06:40:04;6.07;;;1.50;;
73684;SDS011;61985;51.070;14.064;2023-09-19T06:43:12;5.15;;;1.80;;
73684;SDS011;61985;51.070;14.064;2023-09-19T06:45:31;6.88;;;1.67;;
73684;SDS011;61985;51.070;14.064;2023-09-19T06:47:57;4.15;;;1.95;;
73684;SDS011;61985;51.070;14.064;2023-09-19T06:50:25;2.90;;;1.73;;
73684;SDS011;61985;51.070;14.064;2023-09-19T06:52:51;5.13;;;1.83;;
73684;SDS011;61985;51.070;14.064;2023-09-19T06:55:19;3.90;;;1.60;;
73684;SDS011;61985;51.070;14.064;2023-09-19T06:57:45;2.60;;;1.50;;
73684;SDS011;61985;51.070;14.064;2023-09-19T07:00:11;4.00;;;1.77;;
73684;SDS011;61985;51.070;14.064;2023-09-19T07:03:23;3.50;;;1.33;;
73684;SDS011;61985;51.070;14.064;2023-09-19T07:05:33;3.77;;;1.43;;
73684;SDS011;61985;51.070;14.064;2023-09-19T07:08:02;3.20;;;1.80;;
73684;SDS011;61985;51.070;14.064;2023-09-19T07:10:28;3.95;;;1.77;;
73684;SDS011;61985;51.070;14.064;2023-09-19T07:15:23;2.80;;;1.48;;
73684;SDS011;61985;51.070;14.064;2023-09-19T07:17:50;1.95;;;1.42;;
73684;SDS011;61985;51.070;14.064;2023-09-19T07:20:17;2.83;;;1.48;;
73684;SDS011;61985;51.070;14.064;2023-09-19T07:22:42;2.67;;;1.50;;
73684;SDS011;61985;51.070;14.064;2023-09-19T07:25:08;2.60;;;1.50;;
73684;SDS011;61985;51.070;14.064;2023-09-19T07:27:33;3.30;;;1.50;;
73684;SDS011;61985;51.070;14.064;2023-09-19T07:29:59;1.95;;;1.23;;
73684;SDS011;61985;51.070;14.064;2023-09-19T07:32:24;5.30;;;1.50;;
73684;SDS011;61985;51.070;14.064;2023-09-19T07:34:49;2.70;;;1.45;;
73684;SDS011;61985;51.070;14.064;2023-09-19T07:37:15;2.47;;;1.42;;
73684;SDS011;61985;51.070;14.064;2023-09-19T07:39:41;3.28;;;1.85;;
73684;SDS011;61985;51.070;14.064;2023-09-19T07:42:07;2.65;;;1.30;;
73684;SDS011;61985;51.070;14.064;2023-09-19T07:44:32;15.77;;;4.13;;
73684;SDS011;61985;51.070;14.064;2023-09-19T07:46:59;2.78;;;1.30;;
73684;SDS011;61985;51.070;14.064;2023-09-19T07:49:28;2.65;;;1.45;;
73684;SDS011;61985;51.070;14.064;2023-09-19T07:51:53;2.33;;;1.40;;
73684;SDS011;61985;51.070;14.064;2023-09-19T07:54:19;2.22;;;1.10;;
73684;SDS011;61985;51.070;14.064;2023-09-19T07:56:46;6.35;;;1.40;;
73684;SDS011;61985;51.070;14.064;2023-09-19T07:59:11;3.22;;;1.10;;
73684;SDS011;61985;51.070;14.064;2023-09-19T08:01:38;2.50;;;1.00;;
73684;SDS011;61985;51.070;14.064;2023-09-19T08:04:04;1.75;;;1.13;;
73684;SDS011;61985;51.070;14.064;2023-09-19T08:06:30;2.08;;;1.02;;
73684;SDS011;61985;51.070;14.064;2023-09-19T08:08:56;2.58;;;1.23;;
73684;SDS011;61985;51.070;14.064;2023-09-19T08:11:23;4.18;;;1.10;;
73684;SDS011;61985;51.070;14.064;2023-09-19T08:13:49;2.80;;;1.00;;
73684;SDS011;61985;51.070;14.064;2023-09-19T08:16:15;3.30;;;1.00;;
73684;SDS011;61985;51.070;14.064;2023-09-19T08:18:42;3.42;;;1.00;;
73684;SDS011;61985;51.070;14.064;2023-09-19T08:21:18;3.45;;;1.00;;
73684;SDS011;61985;51.070;14.064;2023-09-19T08:23:44;2.75;;;1.17;;
73684;SDS011;61985;51.070;14.064;2023-09-19T08:26:09;2.30;;;1.00;;
73684;SDS011;61985;51.070;14.064;2023-09-19T08:28:35;4.05;;;1.15;;
73684;SDS011;61985;51.070;14.064;2023-09-19T08:31:01;4.63;;;1.10;;
73684;SDS011;61985;51.070;14.064;2023-09-19T08:33:31;5.00;;;1.25;;
73684;SDS011;61985;51.070;14.064;2023-09-19T08:35:57;1.50;;;0.93;;
73684;SDS011;61985;51.070;14.064;2023-09-19T08:38:23;1.80;;;1.00;;
73684;SDS011;61985;51.070;14.064;2023-09-19T08:40:48;2.00;;;1.00;;
73684;SDS011;61985;51.070;14.064;2023-09-19T08:43:14;3.97;;;1.10;;
73684;SDS011;61985;51.070;14.064;2023-09-19T08:45:40;2.60;;;1.10;;
73684;SDS011;61985;51.070;14.064;2023-09-19T08:50:31;2.15;;;0.90;;
73684;SDS011;61985;51.070;14.064;2023-09-19T08:53:02;4.97;;;1.20;;
73684;SDS011;61985;51.070;14.064;2023-09-19T08:55:35;2.22;;;1.10;;
73684;SDS011;61985;51.070;14.064;2023-09-19T08:58:03;3.65;;;1.60;;
73684;SDS011;61985;51.070;14.064;2023-09-19T09:00:31;3.60;;;0.90;;
73684;SDS011;61985;51.070;14.064;2023-09-19T09:02:58;1.15;;;0.85;;
73684;SDS011;61985;51.070;14.064;2023-09-19T09:05:24;3.05;;;1.00;;
73684;SDS011;61985;51.070;14.064;2023-09-19T09:07:51;2.50;;;1.10;;
73684;SDS011;61985;51.070;14.064;2023-09-19T09:10:20;4.75;;;1.10;;
73684;SDS011;61985;51.070;14.064;2023-09-19T09:12:52;4.40;;;1.20;;
73684;SDS011;61985;51.070;14.064;2023-09-19T09:15:21;2.28;;;1.10;;
73684;SDS011;61985;51.070;14.064;2023-09-19T09:17:48;2.40;;;1.17;;
73684;SDS011;61985;51.070;14.064;2023-09-19T09:20:15;2.40;;;1.00;;
73684;SDS011;61985;51.070;14.064;2023-09-19T09:22:54;2.90;;;1.25;;
73684;SDS011;61985;51.070;14.064;2023-09-19T09:25:46;1.60;;;1.10;;
73684;SDS011;61985;51.070;14.064;2023-09-19T09:28:18;2.05;;;1.10;;
73684;SDS011;61985;51.070;14.064;2023-09-19T09:30:45;1.40;;;1.10;;
73684;SDS011;61985;51.070;14.064;2023-09-19T09:33:11;1.88;;;1.00;;
73684;SDS011;61985;51.070;14.064;2023-09-19T09:35:57;4.53;;;1.08;;
73684;SDS011;61985;51.070;14.064;2023-09-19T09:38:28;3.05;;;1.00;;
73684;SDS011;61985;51.070;14.064;2023-09-19T09:41:15;1.63;;;0.88;;
73684;SDS011;61985;51.070;14.064;2023-09-19T09:43:52;2.30;;;0.90;;
73684;SDS011;61985;51.070;14.064;2023-09-19T09:46:18;1.80;;;1.20;;
73684;SDS011;61985;51.070;14.064;2023-09-19T09:51:37;5.30;;;0.82;;
73684;SDS011;61985;51.070;14.064;2023-09-19T09:54:11;2.47;;;1.00;;
73684;SDS011;61985;51.070;14.064;2023-09-19T09:56:57;1.20;;;0.90;;
73684;SDS011;61985;51.070;14.064;2023-09-19T10:02:38;3.13;;;0.82;;
73684;SDS011;61985;51.070;14.064;2023-09-19T10:05:13;0.80;;;0.80;;
73684;SDS011;61985;51.070;14.064;2023-09-19T10:07:52;1.95;;;0.80;;
73684;SDS011;61985;51.070;14.064;2023-09-19T10:13:05;5.18;;;1.20;;
73684;SDS011;61985;51.070;14.064;2023-09-19T10:15:33;1.92;;;1.00;;
73684;SDS011;61985;51.070;14.064;2023-09-19T10:18:04;1.48;;;0.88;;
73684;SDS011;61985;51.070;14.064;2023-09-19T10:20:30;2.25;;;0.80;;
73684;SDS011;61985;51.070;14.064;2023-09-19T10:22:55;1.80;;;1.00;;
73684;SDS011;61985;51.070;14.064;2023-09-19T10:25:26;2.78;;;1.20;;
73684;SDS011;61985;51.070;14.064;2023-09-19T10:27:56;1.52;;;1.00;;
73684;SDS011;61985;51.070;14.064;2023-09-19T10:30:27;1.60;;;1.00;;
73684;SDS011;61985;51.070;14.064;2023-09-19T10:33:02;1.42;;;0.85;;
73684;SDS011;61985;51.070;14.064;2023-09-19T10:35:28;2.38;;;1.15;;
73684;SDS011;61985;51.070;14.064;2023-09-19T10:37:54;3.10;;;1.02;;
73684;SDS011;61985;51.070;14.064;2023-09-19T10:40:24;4.95;;;1.00;;
73684;SDS011;61985;51.070;14.064;2023-09-19T10:42:57;2.80;;;1.05;;
73684;SDS011;61985;51.070;14.064;2023-09-19T10:45:30;1.63;;;0.88;;
73684;SDS011;61985;51.070;14.064;2023-09-19T10:47:57;3.08;;;0.93;;
73684;SDS011;61985;51.070;14.064;2023-09-19T10:50:23;1.55;;;1.00;;
73684;SDS011;61985;51.070;14.064;2023-09-19T10:52:49;2.75;;;1.00;;
73684;SDS011;61985;51.070;14.064;2023-09-19T10:55:23;1.60;;;0.95;;
73684;SDS011;61985;51.070;14.064;2023-09-19T10:57:53;2.72;;;1.10;;
73684;SDS011;61985;51.070;14.064;2023-09-19T11:00:18;1.55;;;1.00;;
73684;SDS011;61985;51.070;14.064;2023-09-19T11:05:34;2.35;;;1.08;;
73684;SDS011;61985;51.070;14.064;2023-09-19T11:08:05;2.95;;;1.02;;
73684;SDS011;61985;51.070;14.064;2023-09-19T11:10:45;2.08;;;1.00;;
73684;SDS011;61985;51.070;14.064;2023-09-19T11:26:49;3.88;;;1.30;;
73684;SDS011;61985;51.070;14.064;2023-09-19T11:29:29;1.77;;;1.05;;
73684;SDS011;61985;51.070;14.064;2023-09-19T11:31:56;3.05;;;1.50;;
73684;SDS011;61985;51.070;14.064;2023-09-19T11:40:09;2.97;;;1.27;;
73684;SDS011;61985;51.070;14.064;2023-09-19T11:42:42;2.40;;;1.10;;
73684;SDS011;61985;51.070;14.064;2023-09-19T11:48:11;2.25;;;1.20;;
73684;SDS011;61985;51.070;14.064;2023-09-19T11:50:40;2.58;;;1.27;;
73684;SDS011;61985;51.070;14.064;2023-09-19T11:53:09;2.00;;;1.13;;
73684;SDS011;61985;51.070;14.064;2023-09-19T11:55:37;3.58;;;1.40;;
73684;SDS011;61985;51.070;14.064;2023-09-19T11:58:03;4.63;;;1.45;;
73684;SDS011;61985;51.070;14.064;2023-09-19T12:00:29;3.92;;;1.20;;
73684;SDS011;61985;51.070;14.064;2023-09-19T12:02:56;3.17;;;1.15;;
73684;SDS011;61985;51.070;14.064;2023-09-19T12:05:31;2.55;;;1.40;;
73684;SDS011;61985;51.070;14.064;2023-09-19T12:07:58;3.50;;;1.42;;
73684;SDS011;61985;51.070;14.064;2023-09-19T12:10:24;2.72;;;1.20;;
73684;SDS011;61985;51.070;14.064;2023-09-19T12:12:50;4.78;;;1.27;;
73684;SDS011;61985;51.070;14.064;2023-09-19T12:15:22;2.72;;;1.40;;
73684;SDS011;61985;51.070;14.064;2023-09-19T12:17:53;2.97;;;1.48;;
73684;SDS011;61985;51.070;14.064;2023-09-19T12:20:19;4.65;;;1.85;;
73684;SDS011;61985;51.070;14.064;2023-09-19T12:22:46;6.00;;;1.30;;
73684;SDS011;61985;51.070;14.064;2023-09-19T12:25:15;3.85;;;1.45;;
73684;SDS011;61985;51.070;14.064;2023-09-19T12:27:46;5.25;;;1.67;;
73684;SDS011;61985;51.070;14.064;2023-09-19T12:30:13;2.78;;;1.42;;
73684;SDS011;61985;51.070;14.064;2023-09-19T12:32:39;3.78;;;1.85;;
73684;SDS011;61985;51.070;14.064;2023-09-19T12:35:06;2.40;;;1.48;;
73684;SDS011;61985;51.070;14.064;2023-09-19T12:37:42;3.28;;;1.35;;
73684;SDS011;61985;51.070;14.064;2023-09-19T12:40:18;2.72;;;1.30;;
73684;SDS011;61985;51.070;14.064;2023-09-19T12:42:53;4.28;;;1.30;;
73684;SDS011;61985;51.070;14.064;2023-09-19T12:45:23;2.65;;;1.42;;
73684;SDS011;61985;51.070;14.064;2023-09-19T12:53:35;3.72;;;1.65;;
73684;SDS011;61985;51.070;14.064;2023-09-19T12:56:09;1.85;;;1.27;;
73684;SDS011;61985;51.070;14.064;2023-09-19T13:01:14;2.88;;;1.88;;
73684;SDS011;61985;51.070;14.064;2023-09-19T13:03:40;4.47;;;1.73;;
73684;SDS011;61985;51.070;14.064;2023-09-19T13:06:07;1.85;;;1.27;;
73684;SDS011;61985;51.070;14.064;2023-09-19T13:08:35;4.03;;;1.48;;
73684;SDS011;61985;51.070;14.064;2023-09-19T13:16:06;2.85;;;1.15;;
73684;SDS011;61985;51.070;14.064;2023-09-19T13:18:49;2.40;;;1.20;;
73684;SDS011;61985;51.070;14.064;2023-09-19T13:21:29;2.03;;;1.02;;
73684;SDS011;61985;51.070;14.064;2023-09-19T13:24:17;3.13;;;1.30;;
73684;SDS011;61985;51.070;14.064;2023-09-19T13:26:44;2.22;;;1.30;;
73684;SDS011;61985;51.070;14.064;2023-09-19T13:29:10;7.35;;;1.40;;
73684;SDS011;61985;51.070;14.064;2023-09-19T13:31:36;4.28;;;1.30;;
73684;SDS011;61985;51.070;14.064;2023-09-19T13:34:06;3.47;;;1.25;;
73684;SDS011;61985;51.070;14.064;2023-09-19T13:36:32;2.28;;;1.20;;
73684;SDS011;61985;51.070;14.064;2023-09-19T13:38:57;3.10;;;1.40;;
73684;SDS011;61985;51.070;14.064;2023-09-19T13:41:24;4.00;;;1.40;;
73684;SDS011;61985;51.070;14.064;2023-09-19T13:43:50;3.78;;;1.20;;
73684;SDS011;61985;51.070;14.064;2023-09-19T13:46:15;3.70;;;1.40;;
73684;SDS011;61985;51.070;14.064;2023-09-19T13:48:41;1.83;;;1.00;;
73684;SDS011;61985;51.070;14.064;2023-09-19T13:51:07;4.28;;;1.10;;
73684;SDS011;61985;51.070;14.064;2023-09-19T13:53:32;2.13;;;1.20;;
73684;SDS011;61985;51.070;14.064;2023-09-19T13:55:57;1.75;;;1.20;;
73684;SDS011;61985;51.070;14.064;2023-09-19T13:58:23;2.47;;;1.30;;
73684;SDS011;61985;51.070;14.064;2023-09-19T14:00:49;2.92;;;1.30;;
73684;SDS011;61985;51.070;14.064;2023-09-19T14:03:14;1.75;;;1.10;;
73684;SDS011;61985;51.070;14.064;2023-09-19T14:05:40;2.63;;;1.65;;
73684;SDS011;61985;51.070;14.064;2023-09-19T14:08:10;3.97;;;1.10;;
73684;SDS011;61985;51.070;14.064;2023-09-19T14:10:41;2.03;;;1.13;;
73684;SDS011;61985;51.070;14.064;2023-09-19T14:13:06;2.80;;;1.30;;
73684;SDS011;61985;51.070;14.064;2023-09-19T14:15:36;2.10;;;1.10;;
73684;SDS011;61985;51.070;14.064;2023-09-19T14:18:03;1.92;;;1.10;;
73684;SDS011;61985;51.070;14.064;2023-09-19T14:20:29;4.55;;;1.20;;
73684;SDS011;61985;51.070;14.064;2023-09-19T14:22:55;2.65;;;1.33;;
73684;SDS011;61985;51.070;14.064;2023-09-19T14:25:23;3.05;;;1.48;;
73684;SDS011;61985;51.070;14.064;2023-09-19T14:27:49;4.38;;;1.10;;
73684;SDS011;61985;51.070;14.064;2023-09-19T14:30:15;1.80;;;1.20;;
73684;SDS011;61985;51.070;14.064;2023-09-19T14:32:40;4.82;;;1.27;;
73684;SDS011;61985;51.070;14.064;2023-09-19T14:35:06;3.20;;;1.10;;
73684;SDS011;61985;51.070;14.064;2023-09-19T14:37:32;2.72;;;1.20;;
73684;SDS011;61985;51.070;14.064;2023-09-19T14:39:58;2.80;;;1.30;;
73684;SDS011;61985;51.070;14.064;2023-09-19T14:42:23;2.05;;;1.30;;
73684;SDS011;61985;51.070;14.064;2023-09-19T14:44:49;2.83;;;1.27;;
73684;SDS011;61985;51.070;14.064;2023-09-19T14:47:15;5.10;;;1.83;;
73684;SDS011;61985;51.070;14.064;2023-09-19T14:49:41;3.05;;;1.50;;
73684;SDS011;61985;51.070;14.064;2023-09-19T14:52:07;4.25;;;1.40;;
73684;SDS011;61985;51.070;14.064;2023-09-19T14:54:33;2.28;;;1.40;;
73684;SDS011;61985;51.070;14.064;2023-09-19T14:56:59;3.72;;;1.50;;
73684;SDS011;61985;51.070;14.064;2023-09-19T14:59:33;2.17;;;1.30;;
73684;SDS011;61985;51.070;14.064;2023-09-19T15:02:02;3.27;;;1.40;;
73684;SDS011;61985;51.070;14.064;2023-09-19T15:04:28;4.15;;;1.60;;
73684;SDS011;61985;51.070;14.064;2023-09-19T15:06:54;3.88;;;1.70;;
73684;SDS011;61985;51.070;14.064;2023-09-19T15:09:20;4.32;;;1.50;;
73684;SDS011;61985;51.070;14.064;2023-09-19T15:11:53;2.88;;;1.55;;
73684;SDS011;61985;51.070;14.064;2023-09-19T15:14:19;4.70;;;1.50;;
73684;SDS011;61985;51.070;14.064;2023-09-19T15:16:44;3.08;;;1.50;;
73684;SDS011;61985;51.070;14.064;2023-09-19T15:19:10;3.92;;;1.65;;
73684;SDS011;61985;51.070;14.064;2023-09-19T15:21:35;3.20;;;1.50;;
73684;SDS011;61985;51.070;14.064;2023-09-19T15:24:02;1.95;;;1.42;;
73684;SDS011;61985;51.070;14.064;2023-09-19T15:26:28;3.17;;;1.77;;
73684;SDS011;61985;51.070;14.064;2023-09-19T15:28:55;4.05;;;1.50;;
73684;SDS011;61985;51.070;14.064;2023-09-19T15:31:20;3.28;;;1.70;;
73684;SDS011;61985;51.070;14.064;2023-09-19T15:33:46;3.55;;;1.70;;
73684;SDS011;61985;51.070;14.064;2023-09-19T15:36:12;3.33;;;1.48;;
73684;SDS011;61985;51.070;14.064;2023-09-19T15:41:23;4.63;;;1.80;;
73684;SDS011;61985;51.070;14.064;2023-09-19T15:43:50;3.53;;;1.90;;
73684;SDS011;61985;51.070;14.064;2023-09-19T15:46:15;3.83;;;1.80;;
73684;SDS011;61985;51.070;14.064;2023-09-19T15:48:41;2.75;;;1.70;;
73684;SDS011;61985;51.070;14.064;2023-09-19T15:51:09;3.25;;;1.70;;
73684;SDS011;61985;51.070;14.064;2023-09-19T15:53:52;4.95;;;1.95;;
73684;SDS011;61985;51.070;14.064;2023-09-19T15:56:19;4.10;;;1.60;;
73684;SDS011;61985;51.070;14.064;2023-09-19T16:58:14;3.83;;;1.70;;
73684;SDS011;61985;51.070;14.064;2023-09-19T17:00:40;3.28;;;1.70;;